Azure — ZCEE2 — position and weather

sailwx.info

Track history (hours):
 
Tides and Currents Weather Stations Pressure Air Temp Water Temp Dewpoint Dewpoint Depression Visibility Wind Speed Wind Dir Waves Ship Positions

Azure

Last reported at 2018-Jun-19 23:41 UTC. Time now 2018-Jun-20 00:06 UTC.
Position N 55°24' E 011°00'.

Length 289 m; draft 8.6 m.

Type: Passenger vessel. MMSI: 310610000.

Date/timePositionNaut miles runAvg speedWind from/ knotsBaromVisibWave heightAir tempDewpointWater temp
2018-Jun-19 23:41N 55°24' E 011°00'818.1
2018-Jun-19 23:16N 55°17' E 011°03'518.0
2018-Jun-19 23:00N 55°12' E 011°06'917.7
2018-Jun-19 22:30N 55°04' E 011°02'917.1
2018-Jun-19 22:00N 54°56' E 010°56'815.9
2018-Jun-19 21:30N 54°49' E 010°52'713.6
2018-Jun-19 21:00N 54°42' E 010°55'917.9
2018-Jun-19 20:30N 54°38' E 011°08'918.4
2018-Jun-19 20:00N 54°34' E 011°23'918.6
2018-Jun-19 19:30N 54°29' E 011°36'918.4
2018-Jun-19 19:00N 54°27' E 011°52'918.3
2018-Jun-19 18:30N 54°27' E 012°07'917.6
2018-Jun-19 18:00N 54°35' E 012°14'6518.4
2018-Jun-19 14:28N 55°01' E 013°56'919.6
2018-Jun-19 14:00N 55°07' E 014°10'1019.8
2018-Jun-19 13:30N 55°15' E 014°20'1019.8
2018-Jun-19 13:00N 55°22' E 014°31'1019.8
2018-Jun-19 12:30N 55°28' E 014°45'1019.8
2018-Jun-19 11:58N 55°34' E 015°00'1219.5
2018-Jun-19 11:22N 55°41' E 015°18'3928.3
2018-Jun-19 10:00N 56°00' E 016°18'15018.8 250 / 381013.2 16.510.916.0
2018-Jun-19 02:00N 58°12' E 018°30'5518.3 220 / 301008.310.8 17.013.516.0
2018-Jun-18 22:57N 58°60' E 019°24'920.0
2018-Jun-18 22:30N 59°08' E 019°33'1120.8
2018-Jun-18 21:57N 59°17' E 019°45'1020.1
2018-Jun-18 21:28N 59°26' E 019°55'4 9.3
2018-Jun-18 21:00N 59°30' E 019°54'6146.7 230 / 251010.710.8 14.512.7
2018-Jun-18 20:57N 59°36' E 019°58'1019.6
2018-Jun-18 20:27N 59°43' E 019°47'919.2
2018-Jun-18 20:00N 59°47' E 019°31'816.3
2018-Jun-18 19:29N 59°45' E 019°16'918.0
2018-Jun-18 18:59N 59°41' E 018°59'510.3
2018-Jun-18 18:30N 59°38' E 018°52'612.2
2018-Jun-18 18:00N 59°35' E 018°42'510.4
2018-Jun-18 17:30N 59°32' E 018°33'510.7
2018-Jun-18 17:00N 59°28' E 018°26'4 8.7
2018-Jun-18 16:30N 59°24' E 018°27'3 5.3
2018-Jun-18 16:00N 59°22' E 018°22'4 8.9
2018-Jun-18 15:30N 59°21' E 018°14'4 8.3
2018-Jun-18 15:00N 59°19' E 018°06'0 0.1
2018-Jun-18 14:23N 59°19' E 018°06'0 0.0
2018-Jun-18 13:59N 59°19' E 018°06'0 0.0
2018-Jun-18 13:29N 59°19' E 018°06'0 0.0
2018-Jun-18 12:59N 59°19' E 018°06'0 0.0
2018-Jun-18 12:29N 59°19' E 018°06'0 0.0
2018-Jun-18 12:00N 59°19' E 018°06'0 0.0
2018-Jun-18 11:25N 59°19' E 018°06'0 0.0
2018-Jun-18 10:56N 59°19' E 018°06'0 0.0
2018-Jun-18 10:17N 59°19' E 018°06'0 0.0
2018-Jun-18 09:59N 59°19' E 018°06'0 0.0
2018-Jun-18 09:30N 59°19' E 018°06'0 0.0
2018-Jun-18 08:58N 59°19' E 018°06'0 0.0
2018-Jun-18 08:27N 59°19' E 018°06'0 0.0
2018-Jun-18 07:57N 59°19' E 018°06'0 0.0
2018-Jun-18 07:27N 59°19' E 018°06'0 0.0
2018-Jun-18 06:33N 59°19' E 018°06'0 0.0
2018-Jun-18 06:14N 59°19' E 018°06'0 0.0
2018-Jun-18 06:00N 59°19' E 018°06'0 0.4
2018-Jun-18 05:30N 59°19' E 018°07'2 3.4
2018-Jun-18 05:00N 59°19' E 018°10'611.2
2018-Jun-18 04:30N 59°23' E 018°19'4 8.2
2018-Jun-18 04:00N 59°22' E 018°27'4 8.8
2018-Jun-18 03:30N 59°27' E 018°24'510.7
2018-Jun-18 03:00N 59°31' E 018°30'5 9.8
2018-Jun-18 02:30N 59°34' E 018°38'611.3
2018-Jun-18 02:00N 59°37' E 018°48'510.6
2018-Jun-18 01:29N 59°40' E 018°56'815.3
2018-Jun-18 00:58N 59°44' E 019°10'816.0
2018-Jun-18 00:27N 59°47' E 019°25'714.4
2018-Jun-17 23:59N 59°48' E 019°39'916.6
2018-Jun-17 23:28N 59°44' E 019°53'2316.2
2018-Jun-17 22:02N 59°37' E 020°37'017.4
2018-Jun-17 22:00N 59°37' E 020°38'917.4
2018-Jun-17 21:30N 59°33' E 020°54'917.4
2018-Jun-17 21:00N 59°30' E 021°10'917.4
2018-Jun-17 20:31N 59°26' E 021°25'917.1
2018-Jun-17 20:00N 59°26' E 021°42'917.4
2018-Jun-17 19:28N 59°26' E 022°01'917.0
2018-Jun-17 18:55N 59°27' E 022°19'717.3
2018-Jun-17 18:31N 59°29' E 022°32'917.5
2018-Jun-17 18:00N 59°32' E 022°49'917.4
2018-Jun-17 17:31N 59°33' E 023°06'917.2
2018-Jun-17 17:00N 59°34' E 023°23'917.3
2018-Jun-17 16:30N 59°32' E 023°39'917.4
2018-Jun-17 16:00N 59°31' E 023°56'917.3
2018-Jun-17 15:31N 59°30' E 024°13'917.6
2018-Jun-17 15:00N 59°30' E 024°31'612.7
2018-Jun-17 14:30N 59°32' E 024°43'510.4
2018-Jun-17 14:00N 59°27' E 024°46'0 0.7
2018-Jun-17 13:30N 59°27' E 024°46'0 0.0
2018-Jun-17 12:59N 59°27' E 024°46'0 0.0
2018-Jun-17 12:28N 59°27' E 024°46'0 0.0
2018-Jun-17 12:00N 59°27' E 024°46'0 0.0
2018-Jun-17 11:30N 59°27' E 024°46'0 0.0
2018-Jun-17 11:00N 59°27' E 024°46'0 0.0
2018-Jun-17 10:29N 59°27' E 024°46'0 0.0
2018-Jun-17 10:00N 59°27' E 024°46'0 0.0
2018-Jun-17 09:28N 59°27' E 024°46'0 0.0
2018-Jun-17 09:00N 59°27' E 024°46'0 0.0
2018-Jun-17 08:29N 59°27' E 024°46'0 0.0
2018-Jun-17 07:55N 59°27' E 024°46'0 0.0
2018-Jun-17 07:30N 59°27' E 024°46'0 0.0
2018-Jun-17 06:59N 59°27' E 024°46'0 0.0
2018-Jun-17 06:28N 59°27' E 024°46'0 0.0
2018-Jun-17 05:58N 59°27' E 024°46'0 0.0
2018-Jun-17 05:28N 59°27' E 024°46'0 0.0
2018-Jun-17 04:58N 59°27' E 024°46'0 0.1
2018-Jun-17 04:30N 59°27' E 024°46'3 6.3
2018-Jun-17 04:01N 59°30' E 024°44'815.5
2018-Jun-17 03:30N 59°37' E 024°39'612.5
2018-Jun-17 03:00N 59°44' E 024°39'815.7
2018-Jun-17 02:30N 59°50' E 024°48'918.4
2018-Jun-17 02:00N 59°52' E 025°06'918.5
2018-Jun-17 01:30N 59°53' E 025°24'1018.0
2018-Jun-17 00:57N 59°54' E 025°44'818.1
2018-Jun-17 00:30N 59°56' E 025°60'917.9
2018-Jun-17 00:00N 59°59' E 026°17'7592.2
2018-Jun-17 00:00N 59°54' E 026°06'1632.7 140 / 91017.110.8 18.014.617.0
2018-Jun-16 23:30N 60°01' E 026°34'917.8
2018-Jun-16 23:00N 60°00' E 026°52'817.0
2018-Jun-16 22:30N 60°01' E 027°09'918.2
2018-Jun-16 22:00N 60°06' E 027°24'918.1
2018-Jun-16 21:30N 60°10' E 027°40'816.5
2018-Jun-16 21:00N 60°10' E 027°56'917.5
2018-Jun-16 20:30N 60°08' E 028°13'917.1
2018-Jun-16 20:00N 60°04' E 028°28'817.0
2018-Jun-16 19:30N 60°03' E 028°45'917.8
2018-Jun-16 19:00N 60°02' E 029°03'917.7
2018-Jun-16 18:30N 60°02' E 029°21'511.3
2018-Jun-16 18:00N 60°01' E 029°32'711.2
2018-Jun-16 17:25N 59°59' E 029°44'4 9.1
2018-Jun-16 17:00N 59°57' E 029°51'510.3
2018-Jun-16 16:30N 59°55' E 030°00'5 9.4
2018-Jun-16 16:00N 59°57' E 030°09'1 1.8
2018-Jun-16 15:28N 59°57' E 030°11'0 0.0
2018-Jun-16 14:58N 59°57' E 030°11'0 0.0
2018-Jun-16 14:30N 59°57' E 030°11'0 0.0
2018-Jun-16 14:01N 59°57' E 030°11'0 0.0
2018-Jun-16 13:28N 59°57' E 030°11'0 0.0
2018-Jun-16 12:59N 59°57' E 030°11'0 0.0
2018-Jun-16 12:25N 59°57' E 030°11'0 0.0
2018-Jun-16 12:00N 59°57' E 030°11'0 0.0
2018-Jun-16 11:27N 59°57' E 030°11'0 0.0
2018-Jun-16 11:00N 59°57' E 030°11'0 0.0
2018-Jun-16 10:29N 59°57' E 030°11'0 0.0
2018-Jun-16 09:55N 59°57' E 030°11'0 0.0
2018-Jun-16 09:30N 59°57' E 030°11'0 0.0
2018-Jun-16 09:01N 59°57' E 030°11'0 0.0
2018-Jun-16 08:30N 59°57' E 030°11'0 0.0
2018-Jun-16 07:56N 59°57' E 030°11'0 0.0
2018-Jun-16 07:13N 59°57' E 030°11'0 0.0
2018-Jun-16 06:56N 59°57' E 030°11'0 0.0
2018-Jun-16 06:29N 59°57' E 030°11'0 0.0
2018-Jun-16 05:49N 59°57' E 030°11'0 0.0
2018-Jun-16 05:28N 59°57' E 030°11'0 0.0
2018-Jun-16 05:00N 59°57' E 030°11'0 0.0
2018-Jun-16 04:28N 59°57' E 030°11'0 0.0
2018-Jun-16 03:55N 59°57' E 030°11'0 0.0
2018-Jun-16 03:30N 59°57' E 030°11'0 0.0
2018-Jun-16 03:00N 59°57' E 030°11'0 0.0
2018-Jun-16 02:25N 59°57' E 030°11'0 0.0
2018-Jun-16 01:56N 59°57' E 030°11'0 0.0
2018-Jun-16 01:28N 59°57' E 030°11'0 0.0
2018-Jun-16 01:00N 59°57' E 030°11'0 0.0
2018-Jun-16 00:22N 59°57' E 030°11'0 0.0
2018-Jun-15 23:56N 59°57' E 030°11'0 0.0
2018-Jun-15 23:22N 59°57' E 030°11'0 0.0
2018-Jun-15 22:59N 59°57' E 030°11'0 0.0
2018-Jun-15 22:30N 59°57' E 030°11'0 0.0
2018-Jun-15 21:57N 59°57' E 030°11'0 0.0
2018-Jun-15 21:29N 59°57' E 030°11'0 0.0
2018-Jun-15 20:55N 59°57' E 030°11'0 0.0
2018-Jun-15 20:23N 59°57' E 030°11'0 0.0
2018-Jun-15 19:48N 59°57' E 030°11'0 0.0
2018-Jun-15 19:30N 59°57' E 030°11'0 0.0
2018-Jun-15 18:58N 59°57' E 030°11'0 0.0
2018-Jun-15 18:28N 59°57' E 030°11'0 0.0
2018-Jun-15 18:00N 59°57' E 030°11'0 0.0
2018-Jun-15 17:26N 59°57' E 030°11'0 0.0
2018-Jun-15 16:59N 59°57' E 030°11'0 0.0
2018-Jun-15 16:29N 59°57' E 030°11'0 0.0
2018-Jun-15 16:00N 59°57' E 030°11'0 0.0
2018-Jun-15 15:28N 59°57' E 030°11'0 0.0
2018-Jun-15 15:01N 59°57' E 030°11'0 0.0
2018-Jun-15 14:30N 59°57' E 030°11'0 0.0
2018-Jun-15 13:58N 59°57' E 030°11'0 0.0
2018-Jun-15 13:30N 59°57' E 030°11'0 0.0
2018-Jun-15 12:58N 59°57' E 030°11'0 0.0
2018-Jun-15 12:30N 59°57' E 030°11'0 0.0
2018-Jun-15 11:58N 59°57' E 030°11'0 0.0
2018-Jun-15 11:28N 59°57' E 030°11'0 0.0
2018-Jun-15 11:00N 59°57' E 030°11'0 0.0
2018-Jun-15 10:30N 59°57' E 030°11'0 0.0
2018-Jun-15 09:59N 59°57' E 030°11'0 0.0
2018-Jun-15 09:29N 59°57' E 030°11'0 0.0
2018-Jun-15 08:59N 59°57' E 030°11'0 0.0
2018-Jun-15 08:29N 59°57' E 030°11'0 0.0
2018-Jun-15 08:00N 59°57' E 030°11'0 0.0
2018-Jun-15 07:29N 59°57' E 030°11'0 0.0
2018-Jun-15 06:59N 59°57' E 030°11'0 0.0
2018-Jun-15 06:25N 59°57' E 030°11'0 0.0
2018-Jun-15 05:57N 59°57' E 030°11'0 0.0
2018-Jun-15 05:28N 59°57' E 030°11'0 0.0
2018-Jun-15 05:00N 59°57' E 030°11'0 0.0
2018-Jun-15 04:26N 59°57' E 030°11'0 0.0
2018-Jun-15 03:55N 59°57' E 030°11'0 0.2
2018-Jun-15 03:30N 59°57' E 030°11'3 5.0
2018-Jun-15 03:00N 59°57' E 030°06'4 8.7
2018-Jun-15 02:30N 59°56' E 029°57'510.4
2018-Jun-15 02:00N 59°58' E 029°48'5 8.8
2018-Jun-15 01:25N 60°00' E 029°39'511.5
2018-Jun-15 01:00N 60°01' E 029°29'712.9
2018-Jun-15 00:27N 60°01' E 029°15'613.9
2018-Jun-15 00:00N 60°01' E 029°03'918.0
2018-Jun-14 23:30N 60°02' E 028°45'918.1
2018-Jun-14 23:00N 60°03' E 028°27'917.5
2018-Jun-14 22:30N 60°08' E 028°12'815.1
2018-Jun-14 22:00N 60°10' E 027°57'816.1
2018-Jun-14 21:30N 60°09' E 027°41'817.1
2018-Jun-14 21:00N 60°05' E 027°26'917.1
2018-Jun-14 20:28N 60°00' E 027°10'816.5
2018-Jun-14 20:00N 59°59' E 026°55'816.7
2018-Jun-14 19:30N 59°60' E 026°39'917.0
2018-Jun-14 19:00N 59°58' E 026°22'714.9
2018-Jun-14 18:30N 59°56' E 026°08'714.3
2018-Jun-14 18:00N 59°54' E 025°55'714.0
2018-Jun-14 17:31N 59°52' E 025°41'713.9
2018-Jun-14 17:00N 59°50' E 025°28'11705.0
2018-Jun-14 17:00N 59°48' E 025°48'1735.3 120 / 201012.310.8 15.510.814.0
2018-Jun-14 16:30N 59°49' E 025°14'714.0
2018-Jun-14 16:00N 59°48' E 025°00'612.2
2018-Jun-14 15:30N 59°52' E 024°53'714.1
2018-Jun-14 15:00N 59°59' E 024°57'612.8
2018-Jun-14 14:31N 60°05' E 024°54'4 7.1
2018-Jun-14 13:59N 60°09' E 024°55'0 0.0
2018-Jun-14 13:31N 60°09' E 024°55'0 0.0
2018-Jun-14 13:00N 60°09' E 024°55'0 0.0
2018-Jun-14 12:29N 60°09' E 024°55'0 0.0
2018-Jun-14 11:58N 60°09' E 024°55'0 0.0
2018-Jun-14 11:27N 60°09' E 024°55'0 0.0
2018-Jun-14 10:59N 60°09' E 024°55'0 0.0
2018-Jun-14 10:28N 60°09' E 024°55'0 0.0
2018-Jun-14 10:00N 60°09' E 024°55'0 0.0
2018-Jun-14 09:30N 60°09' E 024°55'0 0.0
2018-Jun-14 09:00N 60°09' E 024°55'0 0.0
2018-Jun-14 08:30N 60°09' E 024°55'0 0.0
2018-Jun-14 07:59N 60°09' E 024°55'0 0.0
2018-Jun-14 07:28N 60°09' E 024°55'0 0.0
2018-Jun-14 06:57N 60°09' E 024°55'0 0.0
2018-Jun-14 06:29N 60°09' E 024°55'0 0.0
2018-Jun-14 05:58N 60°09' E 024°55'0 0.0
2018-Jun-14 05:30N 60°09' E 024°55'0 0.0
2018-Jun-14 04:59N 60°09' E 024°55'0 0.0
2018-Jun-14 04:29N 60°09' E 024°55'1 1.2
2018-Jun-14 04:00N 60°09' E 024°54'612.4
2018-Jun-14 03:30N 60°02' E 024°54'612.3
2018-Jun-14 03:00N 59°56' E 024°56'714.6
2018-Jun-14 02:30N 59°49' E 024°55'815.1
2018-Jun-14 02:00N 59°45' E 024°41'816.3
2018-Jun-14 01:30N 59°43' E 024°26'816.1
2018-Jun-14 01:00N 59°41' E 024°11'816.2
2018-Jun-14 00:30N 59°38' E 023°55'816.2
2018-Jun-14 00:00N 59°36' E 023°40'156.5
2018-Jun-14 00:00N 59°36' E 023°42'918.7 360 / 101011.510.8 13.0 6.812.0
2018-Jun-13 23:31N 59°34' E 023°25'815.9
2018-Jun-13 23:00N 59°31' E 023°10'816.0
2018-Jun-13 22:30N 59°29' E 022°55'816.4
2018-Jun-13 22:00N 59°26' E 022°39'816.3
2018-Jun-13 21:30N 59°22' E 022°25'816.1
2018-Jun-13 20:59N 59°18' E 022°11'815.9
2018-Jun-13 20:30N 59°13' E 022°00'816.1
2018-Jun-13 19:59N 59°06' E 021°50'816.0
2018-Jun-13 19:31N 59°01' E 021°40'1116.2
2018-Jun-13 18:49N 58°51' E 021°28'616.1
2018-Jun-13 18:28N 58°46' E 021°24'11517.8
2018-Jun-13 12:00N 57°06' E 019°36'15717.2 090 / 171009.210.8 16.0 8.117.0
2018-Jun-13 02:51N 55°39' E 015°40'719.1
2018-Jun-13 02:30N 55°37' E 015°29'1019.1
2018-Jun-13 02:00N 55°35' E 015°13'919.2
2018-Jun-13 01:30N 55°30' E 014°58'918.8
2018-Jun-13 01:00N 55°25' E 014°44'918.2
2018-Jun-13 00:30N 55°19' E 014°33'918.4
2018-Jun-13 00:00N 55°12' E 014°23'918.7
2018-Jun-12 23:30N 55°04' E 014°12'1118.7
2018-Jun-12 22:53N 54°58' E 013°55'818.6
2018-Jun-12 22:29N 54°56' E 013°42'3718.3
2018-Jun-12 20:27N 54°44' E 012°42'1718.1
2018-Jun-12 19:30N 54°34' E 012°18'1816.5
2018-Jun-12 18:25N 54°22' E 011°54'716.0
2018-Jun-12 17:57N 54°19' E 011°43'1018.6
2018-Jun-12 17:25N 54°13' E 011°29'1018.3
2018-Jun-12 16:54N 54°08' E 011°15'615.8
2018-Jun-12 16:30N 54°04' E 011°06'11 0.9
2018-Jun-12 04:29N 53°57' E 010°52'1 2.7
2018-Jun-12 03:57N 53°58' E 010°54'4 9.0
2018-Jun-12 03:30N 54°01' E 010°58'612.1
2018-Jun-12 03:00N 54°05' E 011°06'714.6
2018-Jun-12 02:30N 54°10' E 011°15'714.5
2018-Jun-12 02:00N 54°16' E 011°22'714.9
2018-Jun-12 01:30N 54°22' E 011°30'815.2
2018-Jun-12 01:00N 54°29' E 011°28'816.9
2018-Jun-12 00:30N 54°33' E 011°15'816.7
2018-Jun-12 00:00N 54°37' E 011°03'815.8
2018-Jun-11 23:30N 54°42' E 010°52'714.8
2018-Jun-11 23:00N 54°49' E 010°51'917.4
2018-Jun-11 22:30N 54°57' E 010°57'1019.1
2018-Jun-11 22:00N 55°06' E 011°02'815.9
2018-Jun-11 21:30N 55°14' E 011°06'11615.5
2018-Jun-11 14:01N 57°09' E 011°35'019.3
2018-Jun-11 13:59N 57°10' E 011°34'815.8
2018-Jun-11 13:30N 57°17' E 011°29'815.4
2018-Jun-11 13:01N 57°24' E 011°26'714.9
2018-Jun-11 12:30N 57°30' E 011°18'815.2
2018-Jun-11 12:00N 57°35' E 011°07'815.3
2018-Jun-11 11:30N 57°41' E 010°57'815.9
2018-Jun-11 11:00N 57°48' E 010°49'814.6
2018-Jun-11 10:26N 57°54' E 010°40'12 8.1
2018-Jun-11 09:00N 57°54' E 010°18'14816.5 270 / 251001.810.8 16.512.017.0
2018-Jun-11 00:00N 56°12' E 007°00'17814.9 290 / 411010.310.8 14.511.717.0
2018-Jun-10 12:00N 53°42' E 004°12'2918.0 330 / 181014.710.8 15.510.816.0
2018-Jun-10 10:23N 53°21' E 003°39'717.8
2018-Jun-10 10:01N 53°15' E 003°34'917.8
2018-Jun-10 09:30N 53°06' E 003°28'917.7
2018-Jun-10 09:00N 52°58' E 003°22'917.4
2018-Jun-10 08:30N 52°51' E 003°16'917.3
2018-Jun-10 07:59N 52°42' E 003°10'817.2
2018-Jun-10 07:30N 52°35' E 003°04'1016.8
2018-Jun-10 06:56N 52°26' E 002°57'716.4
2018-Jun-10 06:28N 52°20' E 002°50'817.1
2018-Jun-10 05:59N 52°13' E 002°43'816.9
2018-Jun-10 05:30N 52°06' E 002°37'917.2
2018-Jun-10 05:00N 51°57' E 002°38'916.7
2018-Jun-10 04:30N 51°49' E 002°38'817.1
2018-Jun-10 04:00N 51°42' E 002°30'917.2
2018-Jun-10 03:30N 51°35' E 002°21'917.5
2018-Jun-10 03:00N 51°29' E 002°12'917.2
2018-Jun-10 02:30N 51°21' E 002°07'816.6
2018-Jun-10 02:00N 51°13' E 002°01'917.8
2018-Jun-10 01:30N 51°09' E 001°49'917.9
2018-Jun-10 01:00N 51°03' E 001°38'918.2
2018-Jun-10 00:30N 50°56' E 001°29'918.3
2018-Jun-10 00:00N 50°47' E 001°26'  
Track history (hours):
 
Tides and Currents Weather Stations Pressure Air Temp Water Temp Dewpoint Dewpoint Depression Visibility Wind Speed Wind Dir Waves Ship Positions

Azure

Last reported at 2018-Jun-19 23:41 UTC. Time now 2018-Jun-20 00:06 UTC.
Position N 55°24' E 011°00'.

Length 289 m; draft 8.6 m.

Type: Passenger vessel. MMSI: 310610000.

Date/timePositionNaut miles runAvg speedWind from/ knotsBaromVisibWave heightAir tempDewpointWater temp
2018-Jun-19 23:41N 55°24' E 011°00'818.1
2018-Jun-19 23:16N 55°17' E 011°03'518.0
2018-Jun-19 23:00N 55°12' E 011°06'917.7
2018-Jun-19 22:30N 55°04' E 011°02'917.1
2018-Jun-19 22:00N 54°56' E 010°56'815.9
2018-Jun-19 21:30N 54°49' E 010°52'713.6
2018-Jun-19 21:00N 54°42' E 010°55'917.9
2018-Jun-19 20:30N 54°38' E 011°08'918.4
2018-Jun-19 20:00N 54°34' E 011°23'918.6
2018-Jun-19 19:30N 54°29' E 011°36'918.4
2018-Jun-19 19:00N 54°27' E 011°52'918.3
2018-Jun-19 18:30N 54°27' E 012°07'917.6
2018-Jun-19 18:00N 54°35' E 012°14'6518.4
2018-Jun-19 14:28N 55°01' E 013°56'919.6
2018-Jun-19 14:00N 55°07' E 014°10'1019.8
2018-Jun-19 13:30N 55°15' E 014°20'1019.8
2018-Jun-19 13:00N 55°22' E 014°31'1019.8
2018-Jun-19 12:30N 55°28' E 014°45'1019.8
2018-Jun-19 11:58N 55°34' E 015°00'1219.5
2018-Jun-19 11:22N 55°41' E 015°18'3928.3
2018-Jun-19 10:00N 56°00' E 016°18'15018.8 250 / 381013.2 16.510.916.0
2018-Jun-19 02:00N 58°12' E 018°30'5518.3 220 / 301008.310.8 17.013.516.0
2018-Jun-18 22:57N 58°60' E 019°24'920.0
2018-Jun-18 22:30N 59°08' E 019°33'1120.8
2018-Jun-18 21:57N 59°17' E 019°45'1020.1
2018-Jun-18 21:28N 59°26' E 019°55'4 9.3
2018-Jun-18 21:00N 59°30' E 019°54'6146.7 230 / 251010.710.8 14.512.7
2018-Jun-18 20:57N 59°36' E 019°58'1019.6
2018-Jun-18 20:27N 59°43' E 019°47'919.2
2018-Jun-18 20:00N 59°47' E 019°31'816.3
2018-Jun-18 19:29N 59°45' E 019°16'918.0
2018-Jun-18 18:59N 59°41' E 018°59'510.3
2018-Jun-18 18:30N 59°38' E 018°52'612.2
2018-Jun-18 18:00N 59°35' E 018°42'510.4
2018-Jun-18 17:30N 59°32' E 018°33'510.7
2018-Jun-18 17:00N 59°28' E 018°26'4 8.7
2018-Jun-18 16:30N 59°24' E 018°27'3 5.3
2018-Jun-18 16:00N 59°22' E 018°22'4 8.9
2018-Jun-18 15:30N 59°21' E 018°14'4 8.3
2018-Jun-18 15:00N 59°19' E 018°06'0 0.1
2018-Jun-18 14:23N 59°19' E 018°06'0 0.0
2018-Jun-18 13:59N 59°19' E 018°06'0 0.0
2018-Jun-18 13:29N 59°19' E 018°06'0 0.0
2018-Jun-18 12:59N 59°19' E 018°06'0 0.0
2018-Jun-18 12:29N 59°19' E 018°06'0 0.0
2018-Jun-18 12:00N 59°19' E 018°06'0 0.0
2018-Jun-18 11:25N 59°19' E 018°06'0 0.0
2018-Jun-18 10:56N 59°19' E 018°06'0 0.0
2018-Jun-18 10:17N 59°19' E 018°06'0 0.0
2018-Jun-18 09:59N 59°19' E 018°06'0 0.0
2018-Jun-18 09:30N 59°19' E 018°06'0 0.0
2018-Jun-18 08:58N 59°19' E 018°06'0 0.0
2018-Jun-18 08:27N 59°19' E 018°06'0 0.0
2018-Jun-18 07:57N 59°19' E 018°06'0 0.0
2018-Jun-18 07:27N 59°19' E 018°06'0 0.0
2018-Jun-18 06:33N 59°19' E 018°06'0 0.0
2018-Jun-18 06:14N 59°19' E 018°06'0 0.0
2018-Jun-18 06:00N 59°19' E 018°06'0 0.4
2018-Jun-18 05:30N 59°19' E 018°07'2 3.4
2018-Jun-18 05:00N 59°19' E 018°10'611.2
2018-Jun-18 04:30N 59°23' E 018°19'4 8.2
2018-Jun-18 04:00N 59°22' E 018°27'4 8.8
2018-Jun-18 03:30N 59°27' E 018°24'510.7
2018-Jun-18 03:00N 59°31' E 018°30'5 9.8
2018-Jun-18 02:30N 59°34' E 018°38'611.3
2018-Jun-18 02:00N 59°37' E 018°48'510.6
2018-Jun-18 01:29N 59°40' E 018°56'815.3
2018-Jun-18 00:58N 59°44' E 019°10'816.0
2018-Jun-18 00:27N 59°47' E 019°25'714.4
2018-Jun-17 23:59N 59°48' E 019°39'916.6
2018-Jun-17 23:28N 59°44' E 019°53'2316.2
2018-Jun-17 22:02N 59°37' E 020°37'017.4
2018-Jun-17 22:00N 59°37' E 020°38'917.4
2018-Jun-17 21:30N 59°33' E 020°54'917.4
2018-Jun-17 21:00N 59°30' E 021°10'917.4
2018-Jun-17 20:31N 59°26' E 021°25'917.1
2018-Jun-17 20:00N 59°26' E 021°42'917.4
2018-Jun-17 19:28N 59°26' E 022°01'917.0
2018-Jun-17 18:55N 59°27' E 022°19'717.3
2018-Jun-17 18:31N 59°29' E 022°32'917.5
2018-Jun-17 18:00N 59°32' E 022°49'917.4
2018-Jun-17 17:31N 59°33' E 023°06'917.2
2018-Jun-17 17:00N 59°34' E 023°23'917.3
2018-Jun-17 16:30N 59°32' E 023°39'917.4
2018-Jun-17 16:00N 59°31' E 023°56'917.3
2018-Jun-17 15:31N 59°30' E 024°13'917.6
2018-Jun-17 15:00N 59°30' E 024°31'612.7
2018-Jun-17 14:30N 59°32' E 024°43'510.4
2018-Jun-17 14:00N 59°27' E 024°46'0 0.7
2018-Jun-17 13:30N 59°27' E 024°46'0 0.0
2018-Jun-17 12:59N 59°27' E 024°46'0 0.0
2018-Jun-17 12:28N 59°27' E 024°46'0 0.0
2018-Jun-17 12:00N 59°27' E 024°46'0 0.0
2018-Jun-17 11:30N 59°27' E 024°46'0 0.0
2018-Jun-17 11:00N 59°27' E 024°46'0 0.0
2018-Jun-17 10:29N 59°27' E 024°46'0 0.0
2018-Jun-17 10:00N 59°27' E 024°46'0 0.0
2018-Jun-17 09:28N 59°27' E 024°46'0 0.0
2018-Jun-17 09:00N 59°27' E 024°46'0 0.0
2018-Jun-17 08:29N 59°27' E 024°46'0 0.0
2018-Jun-17 07:55N 59°27' E 024°46'0 0.0
2018-Jun-17 07:30N 59°27' E 024°46'0 0.0
2018-Jun-17 06:59N 59°27' E 024°46'0 0.0
2018-Jun-17 06:28N 59°27' E 024°46'0 0.0
2018-Jun-17 05:58N 59°27' E 024°46'0 0.0
2018-Jun-17 05:28N 59°27' E 024°46'0 0.0
2018-Jun-17 04:58N 59°27' E 024°46'0 0.1
2018-Jun-17 04:30N 59°27' E 024°46'3 6.3
2018-Jun-17 04:01N 59°30' E 024°44'815.5
2018-Jun-17 03:30N 59°37' E 024°39'612.5
2018-Jun-17 03:00N 59°44' E 024°39'815.7
2018-Jun-17 02:30N 59°50' E 024°48'918.4
2018-Jun-17 02:00N 59°52' E 025°06'918.5
2018-Jun-17 01:30N 59°53' E 025°24'1018.0
2018-Jun-17 00:57N 59°54' E 025°44'818.1
2018-Jun-17 00:30N 59°56' E 025°60'917.9
2018-Jun-17 00:00N 59°59' E 026°17'7592.2
2018-Jun-17 00:00N 59°54' E 026°06'1632.7 140 / 91017.110.8 18.014.617.0
2018-Jun-16 23:30N 60°01' E 026°34'917.8
2018-Jun-16 23:00N 60°00' E 026°52'817.0
2018-Jun-16 22:30N 60°01' E 027°09'918.2
2018-Jun-16 22:00N 60°06' E 027°24'918.1
2018-Jun-16 21:30N 60°10' E 027°40'816.5
2018-Jun-16 21:00N 60°10' E 027°56'917.5
2018-Jun-16 20:30N 60°08' E 028°13'917.1
2018-Jun-16 20:00N 60°04' E 028°28'817.0
2018-Jun-16 19:30N 60°03' E 028°45'917.8
2018-Jun-16 19:00N 60°02' E 029°03'917.7
2018-Jun-16 18:30N 60°02' E 029°21'511.3
2018-Jun-16 18:00N 60°01' E 029°32'711.2
2018-Jun-16 17:25N 59°59' E 029°44'4 9.1
2018-Jun-16 17:00N 59°57' E 029°51'510.3
2018-Jun-16 16:30N 59°55' E 030°00'5 9.4
2018-Jun-16 16:00N 59°57' E 030°09'1 1.8
2018-Jun-16 15:28N 59°57' E 030°11'0 0.0
2018-Jun-16 14:58N 59°57' E 030°11'0 0.0
2018-Jun-16 14:30N 59°57' E 030°11'0 0.0
2018-Jun-16 14:01N 59°57' E 030°11'0 0.0
2018-Jun-16 13:28N 59°57' E 030°11'0 0.0
2018-Jun-16 12:59N 59°57' E 030°11'0 0.0
2018-Jun-16 12:25N 59°57' E 030°11'0 0.0
2018-Jun-16 12:00N 59°57' E 030°11'0 0.0
2018-Jun-16 11:27N 59°57' E 030°11'0 0.0
2018-Jun-16 11:00N 59°57' E 030°11'0 0.0
2018-Jun-16 10:29N 59°57' E 030°11'0 0.0
2018-Jun-16 09:55N 59°57' E 030°11'0 0.0
2018-Jun-16 09:30N 59°57' E 030°11'0 0.0
2018-Jun-16 09:01N 59°57' E 030°11'0 0.0
2018-Jun-16 08:30N 59°57' E 030°11'0 0.0
2018-Jun-16 07:56N 59°57' E 030°11'0 0.0
2018-Jun-16 07:13N 59°57' E 030°11'0 0.0
2018-Jun-16 06:56N 59°57' E 030°11'0 0.0
2018-Jun-16 06:29N 59°57' E 030°11'0 0.0
2018-Jun-16 05:49N 59°57' E 030°11'0 0.0
2018-Jun-16 05:28N 59°57' E 030°11'0 0.0
2018-Jun-16 05:00N 59°57' E 030°11'0 0.0
2018-Jun-16 04:28N 59°57' E 030°11'0 0.0
2018-Jun-16 03:55N 59°57' E 030°11'0 0.0
2018-Jun-16 03:30N 59°57' E 030°11'0 0.0
2018-Jun-16 03:00N 59°57' E 030°11'0 0.0
2018-Jun-16 02:25N 59°57' E 030°11'0 0.0
2018-Jun-16 01:56N 59°57' E 030°11'0 0.0
2018-Jun-16 01:28N 59°57' E 030°11'0 0.0
2018-Jun-16 01:00N 59°57' E 030°11'0 0.0
2018-Jun-16 00:22N 59°57' E 030°11'0 0.0
2018-Jun-15 23:56N 59°57' E 030°11'0 0.0
2018-Jun-15 23:22N 59°57' E 030°11'0 0.0
2018-Jun-15 22:59N 59°57' E 030°11'0 0.0
2018-Jun-15 22:30N 59°57' E 030°11'0 0.0
2018-Jun-15 21:57N 59°57' E 030°11'0 0.0
2018-Jun-15 21:29N 59°57' E 030°11'0 0.0
2018-Jun-15 20:55N 59°57' E 030°11'0 0.0
2018-Jun-15 20:23N 59°57' E 030°11'0 0.0
2018-Jun-15 19:48N 59°57' E 030°11'0 0.0
2018-Jun-15 19:30N 59°57' E 030°11'0 0.0
2018-Jun-15 18:58N 59°57' E 030°11'0 0.0
2018-Jun-15 18:28N 59°57' E 030°11'0 0.0
2018-Jun-15 18:00N 59°57' E 030°11'0 0.0
2018-Jun-15 17:26N 59°57' E 030°11'0 0.0
2018-Jun-15 16:59N 59°57' E 030°11'0 0.0
2018-Jun-15 16:29N 59°57' E 030°11'0 0.0
2018-Jun-15 16:00N 59°57' E 030°11'0 0.0
2018-Jun-15 15:28N 59°57' E 030°11'0 0.0
2018-Jun-15 15:01N 59°57' E 030°11'0 0.0
2018-Jun-15 14:30N 59°57' E 030°11'0 0.0
2018-Jun-15 13:58N 59°57' E 030°11'0 0.0
2018-Jun-15 13:30N 59°57' E 030°11'0 0.0
2018-Jun-15 12:58N 59°57' E 030°11'0 0.0
2018-Jun-15 12:30N 59°57' E 030°11'0 0.0
2018-Jun-15 11:58N 59°57' E 030°11'0 0.0
2018-Jun-15 11:28N 59°57' E 030°11'0 0.0
2018-Jun-15 11:00N 59°57' E 030°11'0 0.0
2018-Jun-15 10:30N 59°57' E 030°11'0 0.0
2018-Jun-15 09:59N 59°57' E 030°11'0 0.0
2018-Jun-15 09:29N 59°57' E 030°11'0 0.0
2018-Jun-15 08:59N 59°57' E 030°11'0 0.0
2018-Jun-15 08:29N 59°57' E 030°11'0 0.0
2018-Jun-15 08:00N 59°57' E 030°11'0 0.0
2018-Jun-15 07:29N 59°57' E 030°11'0 0.0
2018-Jun-15 06:59N 59°57' E 030°11'0 0.0
2018-Jun-15 06:25N 59°57' E 030°11'0 0.0
2018-Jun-15 05:57N 59°57' E 030°11'0 0.0
2018-Jun-15 05:28N 59°57' E 030°11'0 0.0
2018-Jun-15 05:00N 59°57' E 030°11'0 0.0
2018-Jun-15 04:26N 59°57' E 030°11'0 0.0
2018-Jun-15 03:55N 59°57' E 030°11'0 0.2
2018-Jun-15 03:30N 59°57' E 030°11'3 5.0
2018-Jun-15 03:00N 59°57' E 030°06'4 8.7
2018-Jun-15 02:30N 59°56' E 029°57'510.4
2018-Jun-15 02:00N 59°58' E 029°48'5 8.8
2018-Jun-15 01:25N 60°00' E 029°39'511.5
2018-Jun-15 01:00N 60°01' E 029°29'712.9
2018-Jun-15 00:27N 60°01' E 029°15'613.9
2018-Jun-15 00:00N 60°01' E 029°03'918.0
2018-Jun-14 23:30N 60°02' E 028°45'918.1
2018-Jun-14 23:00N 60°03' E 028°27'917.5
2018-Jun-14 22:30N 60°08' E 028°12'815.1
2018-Jun-14 22:00N 60°10' E 027°57'816.1
2018-Jun-14 21:30N 60°09' E 027°41'817.1
2018-Jun-14 21:00N 60°05' E 027°26'917.1
2018-Jun-14 20:28N 60°00' E 027°10'816.5
2018-Jun-14 20:00N 59°59' E 026°55'816.7
2018-Jun-14 19:30N 59°60' E 026°39'917.0
2018-Jun-14 19:00N 59°58' E 026°22'714.9
2018-Jun-14 18:30N 59°56' E 026°08'714.3
2018-Jun-14 18:00N 59°54' E 025°55'714.0
2018-Jun-14 17:31N 59°52' E 025°41'713.9
2018-Jun-14 17:00N 59°50' E 025°28'11705.0
2018-Jun-14 17:00N 59°48' E 025°48'1735.3 120 / 201012.310.8 15.510.814.0
2018-Jun-14 16:30N 59°49' E 025°14'714.0
2018-Jun-14 16:00N 59°48' E 025°00'612.2
2018-Jun-14 15:30N 59°52' E 024°53'714.1
2018-Jun-14 15:00N 59°59' E 024°57'612.8
2018-Jun-14 14:31N 60°05' E 024°54'4 7.1
2018-Jun-14 13:59N 60°09' E 024°55'0 0.0
2018-Jun-14 13:31N 60°09' E 024°55'0 0.0
2018-Jun-14 13:00N 60°09' E 024°55'0 0.0
2018-Jun-14 12:29N 60°09' E 024°55'0 0.0
2018-Jun-14 11:58N 60°09' E 024°55'0 0.0
2018-Jun-14 11:27N 60°09' E 024°55'0 0.0
2018-Jun-14 10:59N 60°09' E 024°55'0 0.0
2018-Jun-14 10:28N 60°09' E 024°55'0 0.0
2018-Jun-14 10:00N 60°09' E 024°55'0 0.0
2018-Jun-14 09:30N 60°09' E 024°55'0 0.0
2018-Jun-14 09:00N 60°09' E 024°55'0 0.0
2018-Jun-14 08:30N 60°09' E 024°55'0 0.0
2018-Jun-14 07:59N 60°09' E 024°55'0 0.0
2018-Jun-14 07:28N 60°09' E 024°55'0 0.0
2018-Jun-14 06:57N 60°09' E 024°55'0 0.0
2018-Jun-14 06:29N 60°09' E 024°55'0 0.0
2018-Jun-14 05:58N 60°09' E 024°55'0 0.0
2018-Jun-14 05:30N 60°09' E 024°55'0 0.0
2018-Jun-14 04:59N 60°09' E 024°55'0 0.0
2018-Jun-14 04:29N 60°09' E 024°55'1 1.2
2018-Jun-14 04:00N 60°09' E 024°54'612.4
2018-Jun-14 03:30N 60°02' E 024°54'612.3
2018-Jun-14 03:00N 59°56' E 024°56'714.6
2018-Jun-14 02:30N 59°49' E 024°55'815.1
2018-Jun-14 02:00N 59°45' E 024°41'816.3
2018-Jun-14 01:30N 59°43' E 024°26'816.1
2018-Jun-14 01:00N 59°41' E 024°11'816.2
2018-Jun-14 00:30N 59°38' E 023°55'816.2
2018-Jun-14 00:00N 59°36' E 023°40'156.5
2018-Jun-14 00:00N 59°36' E 023°42'918.7 360 / 101011.510.8 13.0 6.812.0
2018-Jun-13 23:31N 59°34' E 023°25'815.9
2018-Jun-13 23:00N 59°31' E 023°10'816.0
2018-Jun-13 22:30N 59°29' E 022°55'816.4
2018-Jun-13 22:00N 59°26' E 022°39'816.3
2018-Jun-13 21:30N 59°22' E 022°25'816.1
2018-Jun-13 20:59N 59°18' E 022°11'815.9
2018-Jun-13 20:30N 59°13' E 022°00'816.1
2018-Jun-13 19:59N 59°06' E 021°50'816.0
2018-Jun-13 19:31N 59°01' E 021°40'1116.2
2018-Jun-13 18:49N 58°51' E 021°28'616.1
2018-Jun-13 18:28N 58°46' E 021°24'11517.8
2018-Jun-13 12:00N 57°06' E 019°36'15717.2 090 / 171009.210.8 16.0 8.117.0
2018-Jun-13 02:51N 55°39' E 015°40'719.1
2018-Jun-13 02:30N 55°37' E 015°29'1019.1
2018-Jun-13 02:00N 55°35' E 015°13'919.2
2018-Jun-13 01:30N 55°30' E 014°58'918.8
2018-Jun-13 01:00N 55°25' E 014°44'918.2
2018-Jun-13 00:30N 55°19' E 014°33'918.4
2018-Jun-13 00:00N 55°12' E 014°23'918.7
2018-Jun-12 23:30N 55°04' E 014°12'1118.7
2018-Jun-12 22:53N 54°58' E 013°55'818.6
2018-Jun-12 22:29N 54°56' E 013°42'3718.3
2018-Jun-12 20:27N 54°44' E 012°42'1718.1
2018-Jun-12 19:30N 54°34' E 012°18'1816.5
2018-Jun-12 18:25N 54°22' E 011°54'716.0
2018-Jun-12 17:57N 54°19' E 011°43'1018.6
2018-Jun-12 17:25N 54°13' E 011°29'1018.3
2018-Jun-12 16:54N 54°08' E 011°15'615.8
2018-Jun-12 16:30N 54°04' E 011°06'11 0.9
2018-Jun-12 04:29N 53°57' E 010°52'1 2.7
2018-Jun-12 03:57N 53°58' E 010°54'4 9.0
2018-Jun-12 03:30N 54°01' E 010°58'612.1
2018-Jun-12 03:00N 54°05' E 011°06'714.6
2018-Jun-12 02:30N 54°10' E 011°15'714.5
2018-Jun-12 02:00N 54°16' E 011°22'714.9
2018-Jun-12 01:30N 54°22' E 011°30'815.2
2018-Jun-12 01:00N 54°29' E 011°28'816.9
2018-Jun-12 00:30N 54°33' E 011°15'816.7
2018-Jun-12 00:00N 54°37' E 011°03'815.8
2018-Jun-11 23:30N 54°42' E 010°52'714.8
2018-Jun-11 23:00N 54°49' E 010°51'917.4
2018-Jun-11 22:30N 54°57' E 010°57'1019.1
2018-Jun-11 22:00N 55°06' E 011°02'815.9
2018-Jun-11 21:30N 55°14' E 011°06'11615.5
2018-Jun-11 14:01N 57°09' E 011°35'019.3
2018-Jun-11 13:59N 57°10' E 011°34'815.8
2018-Jun-11 13:30N 57°17' E 011°29'815.4
2018-Jun-11 13:01N 57°24' E 011°26'714.9
2018-Jun-11 12:30N 57°30' E 011°18'815.2
2018-Jun-11 12:00N 57°35' E 011°07'815.3
2018-Jun-11 11:30N 57°41' E 010°57'815.9
2018-Jun-11 11:00N 57°48' E 010°49'814.6
2018-Jun-11 10:26N 57°54' E 010°40'12 8.1
2018-Jun-11 09:00N 57°54' E 010°18'14816.5 270 / 251001.810.8 16.512.017.0
2018-Jun-11 00:00N 56°12' E 007°00'17814.9 290 / 411010.310.8 14.511.717.0
2018-Jun-10 12:00N 53°42' E 004°12'2918.0 330 / 181014.710.8 15.510.816.0
2018-Jun-10 10:23N 53°21' E 003°39'717.8
2018-Jun-10 10:01N 53°15' E 003°34'917.8
2018-Jun-10 09:30N 53°06' E 003°28'917.7
2018-Jun-10 09:00N 52°58' E 003°22'917.4
2018-Jun-10 08:30N 52°51' E 003°16'917.3
2018-Jun-10 07:59N 52°42' E 003°10'817.2
2018-Jun-10 07:30N 52°35' E 003°04'1016.8
2018-Jun-10 06:56N 52°26' E 002°57'716.4
2018-Jun-10 06:28N 52°20' E 002°50'817.1
2018-Jun-10 05:59N 52°13' E 002°43'816.9
2018-Jun-10 05:30N 52°06' E 002°37'917.2
2018-Jun-10 05:00N 51°57' E 002°38'916.7
2018-Jun-10 04:30N 51°49' E 002°38'817.1
2018-Jun-10 04:00N 51°42' E 002°30'917.2
2018-Jun-10 03:30N 51°35' E 002°21'917.5
2018-Jun-10 03:00N 51°29' E 002°12'917.2
2018-Jun-10 02:30N 51°21' E 002°07'816.6
2018-Jun-10 02:00N 51°13' E 002°01'917.8
2018-Jun-10 01:30N 51°09' E 001°49'917.9
2018-Jun-10 01:00N 51°03' E 001°38'918.2
2018-Jun-10 00:30N 50°56' E 001°29'918.3
2018-Jun-10 00:00N 50°47' E 001°26'  

Dump ship's entire track history